createdAt,value
2018-03-27T00:00:26.144Z,95.92
2018-03-27T00:02:55.530Z,95.46
2018-03-27T00:05:25.160Z,95.48
2018-03-27T00:07:55.013Z,95.27
2018-03-27T00:10:24.158Z,95.72
2018-03-27T00:12:53.522Z,95.64
2018-03-27T00:15:31.248Z,95.18
2018-03-27T00:18:00.859Z,95.38
2018-03-27T00:20:30.273Z,95.36
2018-03-27T00:22:59.405Z,89.90
2018-03-27T00:25:28.538Z,87.57
2018-03-27T00:28:08.722Z,86.72
2018-03-27T00:30:48.629Z,86.17
2018-03-27T00:33:28.844Z,85.61
2018-03-27T00:36:08.839Z,86.96
2018-03-27T00:38:49.585Z,84.86
2018-03-27T00:41:20.485Z,84.08
2018-03-27T00:43:49.825Z,88.85
2018-03-27T00:46:19.655Z,95.20
2018-03-27T00:48:48.991Z,92.66
2018-03-27T00:51:18.426Z,86.95
2018-03-27T00:53:48.133Z,87.16
2018-03-27T00:56:17.558Z,91.95
2018-03-27T00:58:47.054Z,92.68
2018-03-27T01:01:18.443Z,86.90
2018-03-27T01:03:47.938Z,85.34
2018-03-27T01:06:17.395Z,85.82
2018-03-27T01:08:46.815Z,87.00
2018-03-27T01:11:16.270Z,85.84
2018-03-27T01:13:46.027Z,85.07
2018-03-27T01:16:15.516Z,84.77
2018-03-27T01:18:45.189Z,84.47
2018-03-27T01:21:15.060Z,83.28
2018-03-27T01:23:45.274Z,84.23
2018-03-27T01:26:14.643Z,84.34
2018-03-27T01:28:44.607Z,84.82
2018-03-27T01:31:14.013Z,83.87
2018-03-27T01:33:44.033Z,84.56
2018-03-27T01:36:13.378Z,85.81
2018-03-27T01:38:42.854Z,86.81
2018-03-27T01:41:12.795Z,84.29
2018-03-27T01:43:42.322Z,84.09
2018-03-27T01:46:11.715Z,85.13
2018-03-27T01:48:41.523Z,86.23
2018-03-27T01:51:10.936Z,85.78
2018-03-27T01:53:40.648Z,86.14
2018-03-27T01:56:09.794Z,85.02
2018-03-27T01:58:39.016Z,84.27
2018-03-27T02:01:09.370Z,84.71
2018-03-27T02:03:41.716Z,86.76
2018-03-27T02:06:13.508Z,87.45
2018-03-27T02:08:43.080Z,88.17
2018-03-27T02:11:17.552Z,87.54
2018-03-27T02:13:52.063Z,88.33
2018-03-27T02:16:26.693Z,88.14
2018-03-27T02:19:01.203Z,87.42
2018-03-27T02:21:29.553Z,87.85
2018-03-27T02:23:59.457Z,87.98
2018-03-27T02:26:28.974Z,88.98
2018-03-27T02:28:58.345Z,89.19
2018-03-27T02:31:28.089Z,90.90
2018-03-27T02:33:57.497Z,87.25
2018-03-27T02:36:26.847Z,90.24
2018-03-27T02:38:56.498Z,95.47
2018-03-27T02:41:26.091Z,99.60
2018-03-27T02:43:55.616Z,100.00
2018-03-27T02:46:25.434Z,99.58
2018-03-27T02:48:54.983Z,98.60
2018-03-27T02:51:24.312Z,98.69
2018-03-27T02:53:54.246Z,98.98
2018-03-27T02:56:23.472Z,95.44
2018-03-27T02:58:53.190Z,90.40
2018-03-27T03:01:23.066Z,89.86
2018-03-27T03:03:52.630Z,97.09
2018-03-27T03:06:22.178Z,98.71
2018-03-27T03:08:51.775Z,93.75
2018-03-27T03:13:56.931Z,90.20
2018-03-27T03:16:26.772Z,88.34
2018-03-27T03:18:56.386Z,88.33
2018-03-27T03:21:25.583Z,88.51
2018-03-27T03:23:54.952Z,87.96
2018-03-27T03:26:24.671Z,88.47
2018-03-27T03:28:54.076Z,87.20
2018-03-27T03:31:23.669Z,86.80
2018-03-27T03:33:52.837Z,88.23
2018-03-27T03:36:22.204Z,88.81
2018-03-27T03:38:51.985Z,89.22
2018-03-27T03:41:21.114Z,87.93
2018-03-27T03:43:50.242Z,88.11
2018-03-27T03:46:19.579Z,87.25
2018-03-27T03:48:48.978Z,87.50
2018-03-27T03:51:18.757Z,87.96
2018-03-27T03:53:48.241Z,87.36
2018-03-27T03:56:17.436Z,87.44
2018-03-27T03:58:47.184Z,87.45
2018-03-27T04:01:16.381Z,88.15
2018-03-27T04:03:45.972Z,87.93
2018-03-27T04:06:15.540Z,87.30
2018-03-27T04:08:44.952Z,86.42
2018-03-27T04:11:14.484Z,88.07
2018-03-27T04:13:43.849Z,88.56
2018-03-27T04:16:13.142Z,88.00
2018-03-27T04:18:42.300Z,88.81
2018-03-27T04:21:11.849Z,89.45
2018-03-27T04:23:41.537Z,90.44
2018-03-27T04:26:10.708Z,88.88
2018-03-27T04:28:40.456Z,87.75
2018-03-27T04:31:09.811Z,87.59
2018-03-27T04:33:39.993Z,87.28
2018-03-27T04:36:09.179Z,87.34
2018-03-27T04:38:38.425Z,87.94
2018-03-27T04:41:07.885Z,88.17
2018-03-27T04:43:37.765Z,87.51
2018-03-27T04:46:07.187Z,88.33
2018-03-27T04:48:36.517Z,87.91
2018-03-27T04:51:06.256Z,88.57
2018-03-27T04:53:35.538Z,88.42
2018-03-27T04:56:04.944Z,88.38
2018-03-27T04:58:34.391Z,89.18
2018-03-27T05:01:04.016Z,89.66
2018-03-27T05:03:33.536Z,89.38
2018-03-27T05:06:03.073Z,93.00
2018-03-27T05:08:32.742Z,94.92
2018-03-27T05:11:04.481Z,96.87
2018-03-27T05:13:35.275Z,98.58
2018-03-27T05:16:04.550Z,98.04
2018-03-27T05:18:33.937Z,99.12
2018-03-27T05:21:04.184Z,97.99
2018-03-27T05:23:33.686Z,94.40
2018-03-27T05:26:03.086Z,92.14
2018-03-27T05:28:32.489Z,91.80
2018-03-27T05:31:01.708Z,90.57
2018-03-27T05:33:31.119Z,89.78
2018-03-27T05:36:00.707Z,89.57
2018-03-27T05:38:29.841Z,89.50
2018-03-27T05:40:58.942Z,89.21
2018-03-27T05:43:28.174Z,88.57
2018-03-27T05:45:57.285Z,88.69
2018-03-27T05:48:26.747Z,90.71
2018-03-27T05:50:55.969Z,94.08
2018-03-27T05:53:25.167Z,90.66
2018-03-27T05:55:54.450Z,89.84
2018-03-27T05:58:23.742Z,89.45
2018-03-27T06:00:53.142Z,88.97
2018-03-27T06:03:22.353Z,88.98
2018-03-27T06:05:51.523Z,88.73
2018-03-27T06:08:21.083Z,88.95
2018-03-27T06:10:50.209Z,88.70
2018-03-27T06:13:19.378Z,88.94
2018-03-27T06:15:48.683Z,88.46
2018-03-27T06:18:17.961Z,87.75
2018-03-27T06:20:47.725Z,88.03
2018-03-27T06:23:17.271Z,88.26
2018-03-27T06:25:46.398Z,88.32
2018-03-27T06:28:15.830Z,89.86
2018-03-27T06:30:45.987Z,90.27
2018-03-27T06:33:15.604Z,88.90
2018-03-27T06:35:44.744Z,88.55
2018-03-27T06:38:14.135Z,90.42
2018-03-27T06:40:44.040Z,88.43
2018-03-27T06:43:13.189Z,88.42
2018-03-27T06:45:42.661Z,88.15
2018-03-27T06:48:12.190Z,88.30
2018-03-27T06:50:41.488Z,89.76
2018-03-27T06:53:11.325Z,88.48
2018-03-27T06:55:40.484Z,88.44
2018-03-27T06:58:11.312Z,88.82
2018-03-27T07:00:41.328Z,89.84
2018-03-27T07:03:14.549Z,88.53
2018-03-27T07:05:46.657Z,90.74
2018-03-27T07:08:15.816Z,90.77
2018-03-27T07:10:45.268Z,90.56
2018-03-27T07:13:14.978Z,90.22
2018-03-27T07:15:44.288Z,91.09
2018-03-27T07:18:13.766Z,90.40
2018-03-27T07:20:42.909Z,89.54
2018-03-27T07:23:11.982Z,88.92
2018-03-27T07:25:41.392Z,88.36
2018-03-27T07:28:10.667Z,88.16
2018-03-27T07:30:40.024Z,88.44
2018-03-27T07:33:09.489Z,88.14
2018-03-27T07:35:38.664Z,87.81
2018-03-27T07:38:08.329Z,88.59
2018-03-27T07:40:37.440Z,88.46
2018-03-27T07:43:06.536Z,85.80
2018-03-27T07:45:36.629Z,84.57
2018-03-27T07:48:06.101Z,83.34
2018-03-27T07:50:35.655Z,85.18
2018-03-27T07:53:05.025Z,83.89
2018-03-27T07:55:38.656Z,84.15
2018-03-27T07:58:07.904Z,82.78
2018-03-27T08:00:37.021Z,82.09
2018-03-27T08:03:06.572Z,82.67
2018-03-27T08:05:35.898Z,80.78
2018-03-27T08:08:05.339Z,79.29
2018-03-27T08:10:35.736Z,80.03
2018-03-27T08:13:05.088Z,79.77
2018-03-27T08:15:34.181Z,79.47
2018-03-27T08:18:03.748Z,78.71
2018-03-27T08:20:35.662Z,81.18
2018-03-27T08:23:05.635Z,78.56
2018-03-27T08:25:35.931Z,79.27
2018-03-27T08:28:05.158Z,78.06
2018-03-27T08:30:35.863Z,76.26
2018-03-27T08:33:06.715Z,77.34
2018-03-27T08:35:36.017Z,76.83
2018-03-27T08:38:05.745Z,75.84
2018-03-27T08:40:35.562Z,74.93
2018-03-27T08:43:04.792Z,75.00
2018-03-27T08:45:34.710Z,75.80
2018-03-27T08:48:03.955Z,76.30
2018-03-27T08:50:34.120Z,76.97
2018-03-27T08:53:03.280Z,77.28
2018-03-27T08:55:32.562Z,75.50
2018-03-27T08:58:02.260Z,76.28
2018-03-27T09:00:31.598Z,73.83
2018-03-27T09:03:00.767Z,74.32
2018-03-27T09:05:29.929Z,77.41
2018-03-27T09:07:59.024Z,75.54
2018-03-27T09:10:28.563Z,76.31
2018-03-27T09:12:57.690Z,75.56
2018-03-27T09:15:26.808Z,81.29
2018-03-27T09:17:56.101Z,75.88
2018-03-27T09:20:25.321Z,72.36
2018-03-27T09:22:56.023Z,71.84
2018-03-27T09:25:25.208Z,70.73
2018-03-27T09:27:54.320Z,70.81
2018-03-27T09:30:24.008Z,72.07
2018-03-27T09:32:53.417Z,70.84
2018-03-27T09:35:22.804Z,67.11
2018-03-27T09:37:52.315Z,67.01
2018-03-27T09:40:21.431Z,66.11
2018-03-27T09:42:51.067Z,64.12
2018-03-27T09:45:20.402Z,70.19
2018-03-27T09:47:49.718Z,69.79
2018-03-27T09:50:18.889Z,74.75
2018-03-27T09:52:48.002Z,72.75
2018-03-27T09:55:17.834Z,70.82
2018-03-27T09:57:47.156Z,67.27
2018-03-27T10:00:20.361Z,66.42
2018-03-27T10:02:49.972Z,66.73
2018-03-27T10:05:19.099Z,69.26
2018-03-27T10:07:48.713Z,70.74
2018-03-27T10:10:17.857Z,66.05
2018-03-27T10:12:47.234Z,68.16
2018-03-27T10:15:16.802Z,72.64
2018-03-27T10:17:46.127Z,71.35
2018-03-27T10:20:15.476Z,66.36
2018-03-27T10:22:45.122Z,64.92
2018-03-27T10:25:14.278Z,67.80
2018-03-27T10:27:44.078Z,65.34
2018-03-27T10:30:13.673Z,67.25
2018-03-27T10:32:42.983Z,67.11
2018-03-27T10:35:12.518Z,70.97
2018-03-27T10:37:41.796Z,71.71
2018-03-27T10:40:11.286Z,74.13
2018-03-27T10:42:40.674Z,71.71
2018-03-27T10:45:09.844Z,68.58
2018-03-27T10:47:39.404Z,68.34
2018-03-27T10:50:08.723Z,65.35
2018-03-27T10:52:38.029Z,63.29
2018-03-27T10:55:08.033Z,65.50
2018-03-27T10:57:37.348Z,60.72
2018-03-27T11:00:07.694Z,63.33
2018-03-27T11:02:37.110Z,63.56
2018-03-27T11:05:06.229Z,58.69
2018-03-27T11:07:35.928Z,64.36
2018-03-27T11:10:05.510Z,62.16
2018-03-27T11:12:34.814Z,61.40
2018-03-27T11:15:04.114Z,63.70
2018-03-27T11:17:33.318Z,59.48
2018-03-27T11:20:02.774Z,55.59
2018-03-27T11:22:33.810Z,61.04
2018-03-27T11:25:03.023Z,61.36
2018-03-27T11:27:33.045Z,64.88
2018-03-27T11:30:02.171Z,63.53
2018-03-27T11:32:31.589Z,63.64
2018-03-27T11:35:00.714Z,67.38
2018-03-27T11:37:29.877Z,69.35
2018-03-27T11:39:59.447Z,63.30
2018-03-27T11:42:29.014Z,61.62
2018-03-27T11:44:58.337Z,64.03
2018-03-27T11:47:27.457Z,65.71
2018-03-27T11:49:56.568Z,61.19
2018-03-27T11:52:26.270Z,60.08
2018-03-27T11:54:55.860Z,59.96
2018-03-27T11:57:25.217Z,57.03
2018-03-27T11:59:54.862Z,56.92
2018-03-27T12:02:24.038Z,60.55
2018-03-27T12:04:53.559Z,58.90
2018-03-27T12:07:23.250Z,62.19
2018-03-27T12:09:52.581Z,63.26
2018-03-27T12:12:22.177Z,65.39
2018-03-27T12:14:51.882Z,64.76
2018-03-27T12:17:21.406Z,63.11
2018-03-27T12:19:50.891Z,64.90
2018-03-27T12:22:20.029Z,64.04
2018-03-27T12:24:49.816Z,62.01
2018-03-27T12:27:19.220Z,61.18
2018-03-27T12:29:48.522Z,61.52
2018-03-27T12:32:18.215Z,62.10
2018-03-27T12:34:47.531Z,62.60
2018-03-27T12:37:16.684Z,62.17
2018-03-27T12:39:45.788Z,61.92
2018-03-27T12:42:15.048Z,61.29
2018-03-27T12:44:44.666Z,59.98
2018-03-27T12:47:13.841Z,62.29
2018-03-27T12:49:43.219Z,61.65
2018-03-27T12:52:12.907Z,62.08
2018-03-27T12:54:42.274Z,62.29
2018-03-27T12:57:12.606Z,60.74
2018-03-27T12:59:41.845Z,61.02
2018-03-27T13:02:10.986Z,55.57
2018-03-27T13:04:41.752Z,56.65
2018-03-27T13:07:12.247Z,58.59
2018-03-27T13:09:43.366Z,59.07
2018-03-27T13:12:12.611Z,55.48
2018-03-27T13:14:41.933Z,55.89
2018-03-27T13:17:11.605Z,56.42
2018-03-27T13:19:40.834Z,53.39
2018-03-27T13:22:10.419Z,54.97
2018-03-27T13:24:39.536Z,55.31
2018-03-27T13:27:09.021Z,57.31
2018-03-27T13:29:38.816Z,56.56
2018-03-27T13:32:08.022Z,55.54
2018-03-27T13:34:37.184Z,56.77
2018-03-27T13:37:06.789Z,55.90
2018-03-27T13:39:35.925Z,52.85
2018-03-27T13:42:05.078Z,52.22
2018-03-27T13:44:34.250Z,53.88
2018-03-27T13:47:03.389Z,54.81
2018-03-27T13:49:33.210Z,52.59
2018-03-27T13:52:02.340Z,52.76
2018-03-27T13:56:53.083Z,51.27
2018-03-27T13:59:22.329Z,51.76
2018-03-27T14:01:51.595Z,51.16
2018-03-27T14:04:21.094Z,46.99
2018-03-27T14:06:50.626Z,50.65
2018-03-27T14:09:19.813Z,50.17
2018-03-27T14:11:49.843Z,49.14
2018-03-27T14:14:19.629Z,50.31
2018-03-27T14:16:48.745Z,46.85
2018-03-27T14:19:18.183Z,49.60
2018-03-27T14:21:47.316Z,47.71
2018-03-27T14:24:16.465Z,49.24
2018-03-27T14:26:45.840Z,52.15
2018-03-27T14:29:14.964Z,52.37
2018-03-27T14:31:44.207Z,48.83
2018-03-27T14:34:13.943Z,48.12
2018-03-27T14:36:43.105Z,47.54
2018-03-27T14:39:12.326Z,49.79
2018-03-27T14:41:42.032Z,49.02
2018-03-27T14:44:11.597Z,46.06
2018-03-27T14:46:41.188Z,47.33
2018-03-27T14:49:10.665Z,46.37
2018-03-27T14:51:40.313Z,48.71
2018-03-27T14:54:10.266Z,49.81
2018-03-27T14:56:39.927Z,47.69
2018-03-27T14:59:09.101Z,48.91
2018-03-27T15:01:38.301Z,47.62
2018-03-27T15:04:07.749Z,47.15
2018-03-27T15:06:36.998Z,45.60
2018-03-27T15:09:07.437Z,48.36
2018-03-27T15:11:36.841Z,47.62
2018-03-27T15:14:06.041Z,49.85
2018-03-27T15:16:35.177Z,46.58
2018-03-27T15:19:04.870Z,47.59
2018-03-27T15:21:34.163Z,48.01
2018-03-27T15:24:04.163Z,49.85
2018-03-27T15:26:33.509Z,49.83
2018-03-27T15:29:02.703Z,46.06
2018-03-27T15:31:31.914Z,46.92
2018-03-27T15:34:01.018Z,50.51
2018-03-27T15:36:30.259Z,48.40
2018-03-27T15:38:59.703Z,44.83
2018-03-27T15:41:29.049Z,46.62
2018-03-27T15:43:58.149Z,44.73
2018-03-27T15:46:27.262Z,44.80
2018-03-27T15:48:56.440Z,45.30
2018-03-27T15:51:26.055Z,47.08
2018-03-27T15:53:55.437Z,48.03
2018-03-27T15:56:29.536Z,48.00
2018-03-27T15:58:59.885Z,51.85
2018-03-27T16:01:29.170Z,48.04
2018-03-27T16:03:58.608Z,49.21
2018-03-27T16:06:27.802Z,50.08
2018-03-27T16:08:57.522Z,51.52
2018-03-27T16:11:26.788Z,51.81
2018-03-27T16:13:56.828Z,52.98
2018-03-27T16:16:26.185Z,53.74
2018-03-27T16:18:55.949Z,54.40
2018-03-27T16:21:25.224Z,53.32
2018-03-27T16:23:54.765Z,53.22
2018-03-27T16:26:24.058Z,53.82
2018-03-27T16:28:53.666Z,51.96
2018-03-27T16:31:22.884Z,52.70
2018-03-27T16:33:52.942Z,53.72
2018-03-27T16:36:22.089Z,55.53
2018-03-27T16:38:51.246Z,57.60
2018-03-27T16:41:20.374Z,57.85
2018-03-27T16:43:49.776Z,57.09
2018-03-27T16:46:19.267Z,58.12
2018-03-27T16:48:48.441Z,59.96
2018-03-27T16:51:17.861Z,59.49
2018-03-27T16:53:47.494Z,59.59
2018-03-27T16:56:16.898Z,59.27
2018-03-27T16:58:46.429Z,59.68
2018-03-27T17:01:16.313Z,61.42
2018-03-27T17:03:45.824Z,61.75
2018-03-27T17:06:15.590Z,62.48
2018-03-27T17:08:45.210Z,62.74
2018-03-27T17:11:14.609Z,62.96
2018-03-27T17:13:44.274Z,60.80
2018-03-27T17:16:13.825Z,61.03
2018-03-27T17:18:43.350Z,61.86
2018-03-27T17:21:12.598Z,62.07
2018-03-27T17:23:44.022Z,61.55
2018-03-27T17:26:16.424Z,61.26
2018-03-27T17:28:46.041Z,61.04
2018-03-27T17:31:15.167Z,60.90
2018-03-27T17:33:44.301Z,60.22
2018-03-27T17:36:14.401Z,60.93
2018-03-27T17:38:43.662Z,60.74
2018-03-27T17:41:13.158Z,60.33
2018-03-27T17:43:42.765Z,60.67
2018-03-27T17:46:11.962Z,60.97
2018-03-27T17:48:41.201Z,60.71
2018-03-27T17:51:10.776Z,60.89
2018-03-27T17:53:40.065Z,62.35
2018-03-27T17:56:09.195Z,61.34
2018-03-27T17:58:38.857Z,62.69
2018-03-27T18:01:08.099Z,63.90
2018-03-27T18:03:37.332Z,63.59
2018-03-27T18:06:07.144Z,62.97
2018-03-27T18:08:36.302Z,61.52
2018-03-27T18:11:05.969Z,60.17
2018-03-27T18:13:35.391Z,60.23
2018-03-27T18:16:04.869Z,59.87
2018-03-27T18:18:35.562Z,60.27
2018-03-27T18:21:06.990Z,59.96
2018-03-27T18:23:38.163Z,59.54
2018-03-27T18:26:08.565Z,60.04
2018-03-27T18:28:40.271Z,59.99
2018-03-27T18:31:12.719Z,59.46
2018-03-27T18:33:45.162Z,59.60
2018-03-27T18:36:17.559Z,59.68
2018-03-27T18:38:47.717Z,59.67
2018-03-27T18:41:18.542Z,59.47
2018-03-27T18:43:49.836Z,59.62
2018-03-27T18:46:20.817Z,59.26
2018-03-27T18:48:52.760Z,59.01
2018-03-27T18:51:21.967Z,59.38
2018-03-27T18:53:51.387Z,59.31
2018-03-27T18:56:20.697Z,59.65
2018-03-27T18:58:49.961Z,59.54
2018-03-27T19:01:19.461Z,59.65
2018-03-27T19:03:48.640Z,59.02
2018-03-27T19:06:17.897Z,59.95
2018-03-27T19:08:47.573Z,61.22
2018-03-27T19:11:16.989Z,61.44
2018-03-27T19:13:46.318Z,61.25
2018-03-27T19:16:16.096Z,61.97
2018-03-27T19:18:45.287Z,62.36
2018-03-27T19:21:15.202Z,62.08
2018-03-27T19:23:44.828Z,61.72
2018-03-27T19:26:14.209Z,61.41
2018-03-27T19:28:43.944Z,62.54
2018-03-27T19:31:13.877Z,62.74
2018-03-27T19:33:43.033Z,62.61
2018-03-27T19:36:12.520Z,63.51
2018-03-27T19:38:42.525Z,62.90
2018-03-27T19:41:11.755Z,63.82
2018-03-27T19:43:40.996Z,63.92
2018-03-27T19:46:10.496Z,63.14
2018-03-27T19:48:39.679Z,63.10
2018-03-27T19:51:09.274Z,63.38
2018-03-27T19:53:38.538Z,64.25
2018-03-27T19:56:08.190Z,64.99
2018-03-27T19:58:37.340Z,65.29
2018-03-27T20:01:06.917Z,64.91
2018-03-27T20:03:36.060Z,65.11
2018-03-27T20:06:05.812Z,64.85
2018-03-27T20:08:35.655Z,67.35
2018-03-27T20:11:06.377Z,68.32
2018-03-27T20:13:35.735Z,69.47
2018-03-27T20:16:04.932Z,73.02
2018-03-27T20:18:34.601Z,72.21
2018-03-27T20:21:04.478Z,73.13
2018-03-27T20:23:34.007Z,74.46
2018-03-27T20:26:03.605Z,74.65
2018-03-27T20:28:33.316Z,74.41
2018-03-27T20:31:03.811Z,73.91
2018-03-27T20:33:33.756Z,74.68
2018-03-27T20:36:03.028Z,75.78
2018-03-27T20:38:32.272Z,79.23
2018-03-27T20:41:01.854Z,77.73
2018-03-27T20:43:31.018Z,77.87
2018-03-27T20:46:00.321Z,77.10
2018-03-27T20:48:29.822Z,76.03
2018-03-27T20:50:59.239Z,76.72
2018-03-27T20:53:28.664Z,77.65
2018-03-27T20:55:58.066Z,77.53
2018-03-27T20:58:27.190Z,77.74
2018-03-27T21:00:56.394Z,77.35
2018-03-27T21:03:26.412Z,76.55
2018-03-27T21:05:56.131Z,77.32
2018-03-27T21:08:25.265Z,76.84
2018-03-27T21:10:54.680Z,77.28
2018-03-27T21:13:23.797Z,77.34
2018-03-27T21:15:53.033Z,83.87
2018-03-27T21:18:22.719Z,83.07
2018-03-27T21:20:52.021Z,85.12
2018-03-27T21:23:21.638Z,81.81
2018-03-27T21:25:51.060Z,80.77
2018-03-27T21:28:20.228Z,80.76
2018-03-27T21:30:49.387Z,80.01
2018-03-27T21:33:18.873Z,80.02
2018-03-27T21:35:48.009Z,80.80
2018-03-27T21:38:17.482Z,80.37
2018-03-27T21:40:46.713Z,79.39
2018-03-27T21:43:15.877Z,79.92
2018-03-27T21:45:45.063Z,79.99
2018-03-27T21:48:14.362Z,79.79
2018-03-27T21:50:44.400Z,79.81
2018-03-27T21:53:13.886Z,80.10
2018-03-27T21:55:43.044Z,80.06
2018-03-27T21:58:13.399Z,81.13
2018-03-27T22:00:44.024Z,80.12
2018-03-27T22:03:17.911Z,81.60
2018-03-27T22:05:47.179Z,82.40
2018-03-27T22:08:16.488Z,83.37
2018-03-27T22:10:46.069Z,85.97
2018-03-27T22:13:15.793Z,86.73
2018-03-27T22:15:45.455Z,89.44
2018-03-27T22:18:14.784Z,87.52
2018-03-27T22:20:46.891Z,82.48
2018-03-27T22:23:18.527Z,83.47
2018-03-27T22:25:50.659Z,88.25
2018-03-27T22:28:22.726Z,87.75
2018-03-27T22:30:52.143Z,85.67
2018-03-27T22:33:21.551Z,84.88
2018-03-27T22:35:52.959Z,89.63
2018-03-27T22:38:24.586Z,93.05
2018-03-27T22:40:54.311Z,93.26
2018-03-27T22:43:24.064Z,94.92
2018-03-27T22:45:53.864Z,92.17
2018-03-27T22:48:23.519Z,87.46
2018-03-27T22:50:52.820Z,90.75
2018-03-27T22:53:22.234Z,90.99
2018-03-27T22:55:51.564Z,86.63
2018-03-27T22:58:22.087Z,84.38
2018-03-27T23:00:51.466Z,83.28
2018-03-27T23:03:22.509Z,81.86
2018-03-27T23:05:52.405Z,81.33
2018-03-27T23:08:22.631Z,81.17
2018-03-27T23:10:52.385Z,82.45
2018-03-27T23:13:25.888Z,81.29
2018-03-27T23:15:55.352Z,82.12
2018-03-27T23:18:25.300Z,84.40
2018-03-27T23:20:54.622Z,84.51
2018-03-27T23:23:23.830Z,81.80
2018-03-27T23:25:55.417Z,81.17
2018-03-27T23:28:24.885Z,80.65
2018-03-27T23:30:55.168Z,79.56
2018-03-27T23:33:25.116Z,78.88
2018-03-27T23:35:54.825Z,79.34
2018-03-27T23:38:24.830Z,79.87
2018-03-27T23:40:54.950Z,79.99
2018-03-27T23:43:24.374Z,82.00
2018-03-27T23:45:53.586Z,80.17
2018-03-27T23:48:23.289Z,79.65
2018-03-27T23:50:52.994Z,79.92
2018-03-27T23:53:23.190Z,79.45
2018-03-27T23:55:52.297Z,79.24
2018-03-27T23:58:21.395Z,79.72
